Time;durP1;ratioP1;P1;durP2;ratioP2;P2;SDS_P1;SDS_P2;PMS_P1;PMS_P2;Temp;Humidity;BMP_temperature;BMP_pressure;BME280_temperature;BME280_humidity;BME280_pressure;Samples;Min_cycle;Max_cycle;Signal;HPM_P1;HPM_P2
2022/08/29 00:00:52;;;;;;;18.10;11.85;;;;;;;14.15;100.00;98639.31;2606740;28;20515;-92
2022/08/29 00:02:08;;;;;;;17.83;11.90;;;;;;;14.20;100.00;98643.47;2607272;28;20045;-91
2022/08/29 00:03:24;;;;;;;18.80;11.68;;;;;;;14.20;100.00;98637.38;2605940;28;20450;-92
2022/08/29 00:04:40;;;;;;;19.52;12.95;;;;;;;14.26;100.00;98645.88;2607856;28;20045;-91
2022/08/29 00:05:56;;;;;;;20.15;12.40;;;;;;;14.31;100.00;98639.56;2606584;28;20541;-91
2022/08/29 00:07:12;;;;;;;20.52;12.15;;;;;;;14.31;100.00;98640.41;2607641;28;20044;-89
2022/08/29 00:08:27;;;;;;;22.73;12.50;;;;;;;14.30;100.00;98637.84;2606351;28;20492;-89
2022/08/29 00:09:43;;;;;;;21.85;12.57;;;;;;;14.31;100.00;98644.81;2606814;28;20052;-90
2022/08/29 00:10:59;;;;;;;24.27;12.85;;;;;;;14.26;100.00;98643.25;2606436;28;20052;-92
2022/08/29 00:12:14;;;;;;;19.98;11.88;;;;;;;14.22;100.00;98639.00;2607327;28;20056;-93
2022/08/29 00:13:30;;;;;;;34.90;11.05;;;;;;;14.13;100.00;98636.75;2607109;28;20057;-92
2022/08/29 00:14:45;;;;;;;87.68;13.52;;;;;;;14.34;100.00;98634.16;2606496;28;20048;-92
2022/08/29 00:16:02;;;;;;;53.25;11.30;;;;;;;14.41;100.00;98636.47;2607444;28;20045;-90
2022/08/29 00:17:17;;;;;;;89.85;14.20;;;;;;;14.44;100.00;98635.50;2606358;28;20053;-90
2022/08/29 00:18:34;;;;;;;68.15;11.98;;;;;;;14.27;100.00;98634.44;2607789;28;20060;-91
2022/08/29 00:19:49;;;;;;;55.70;11.20;;;;;;;14.43;100.00;98638.19;2606791;28;20088;-92
2022/08/29 00:21:05;;;;;;;117.18;14.35;;;;;;;14.40;100.00;98634.78;2607114;28;20049;-91
2022/08/29 00:22:21;;;;;;;142.45;14.68;;;;;;;14.40;100.00;98631.31;2605889;28;20053;-91
2022/08/29 00:23:37;;;;;;;118.50;13.15;;;;;;;14.28;100.00;98637.91;2608250;28;20526;-91
2022/08/29 00:24:52;;;;;;;129.38;14.30;;;;;;;14.47;100.00;98631.91;2606692;28;20133;-91
2022/08/29 00:26:08;;;;;;;113.18;14.02;;;;;;;14.50;100.00;98635.25;2608117;28;20048;-90
2022/08/29 00:27:23;;;;;;;191.75;17.23;;;;;;;14.41;100.00;98631.22;2605949;28;20102;-91
2022/08/29 00:28:39;;;;;;;165.68;16.33;;;;;;;14.33;100.00;98630.69;2607020;28;20056;-91
2022/08/29 00:29:55;;;;;;;94.00;13.15;;;;;;;14.40;100.00;98636.56;2606165;28;20543;-90
2022/08/29 00:31:10;;;;;;;90.80;13.05;;;;;;;14.35;100.00;98636.75;2607959;28;20095;-90
2022/08/29 00:32:33;;;;;;;108.47;13.38;;;;;;;14.44;100.00;98635.50;2606583;28;20067;-90
2022/08/29 00:33:50;;;;;;;57.25;12.40;;;;;;;14.45;100.00;98642.50;2607547;28;20053;-90
2022/08/29 00:35:12;;;;;;;152.38;16.00;;;;;;;14.42;100.00;98637.34;2606781;28;20084;-91
2022/08/29 00:36:28;;;;;;;95.70;13.07;;;;;;;14.23;100.00;98643.34;2607272;28;20049;-91
2022/08/29 00:37:44;;;;;;;144.20;15.85;;;;;;;14.23;100.00;98639.88;2606138;28;20136;-90
2022/08/29 00:38:59;;;;;;;87.38;14.57;;;;;;;14.36;100.00;98641.09;2607280;28;20044;-89
2022/08/29 00:40:19;;;;;;;73.75;12.57;;;;;;;14.35;100.00;98646.41;2606257;28;20244;-91
2022/08/29 00:41:34;;;;;;;129.77;15.52;;;;;;;14.35;100.00;98647.28;2607496;28;20053;-91
2022/08/29 00:42:50;;;;;;;151.35;15.38;;;;;;;14.35;100.00;98641.13;2605888;28;20427;-91
2022/08/29 00:44:06;;;;;;;127.38;16.85;;;;;;;14.29;100.00;98641.41;2607271;28;20048;-90
2022/08/29 00:45:22;;;;;;;65.57;13.85;;;;;;;14.26;100.00;98637.09;2607197;28;20423;-90
2022/08/29 00:46:46;;;;;;;161.90;17.17;;;;;;;14.22;100.00;98646.91;2606760;28;20093;-89
2022/08/29 00:48:12;;;;;;;72.22;12.93;;;;;;;14.27;100.00;98644.09;2605995;28;20049;-90
2022/08/29 00:49:30;;;;;;;134.80;15.48;;;;;;;14.22;100.00;98636.38;2606751;28;20057;-90
2022/08/29 00:50:51;;;;;;;175.07;16.90;;;;;;;14.20;100.00;98640.00;2606490;28;20041;-89
2022/08/29 00:52:38;;;;;;;68.50;12.00;;;;;;;14.24;100.00;98639.78;2606903;28;20059;-91
2022/08/29 00:54:01;;;;;;;84.47;13.00;;;;;;;14.13;100.00;98644.66;2606344;28;20063;-91
2022/08/29 00:55:21;;;;;;;84.38;12.63;;;;;;;14.16;100.00;98639.25;2607237;28;20053;-91
2022/08/29 00:56:38;;;;;;;102.15;12.38;;;;;;;14.01;100.00;98637.22;2605998;28;20060;-91
2022/08/29 00:57:57;;;;;;;83.57;14.27;;;;;;;14.03;100.00;98644.13;2607401;28;20084;-92
2022/08/29 00:59:18;;;;;;;131.93;14.75;;;;;;;14.03;100.00;98640.66;2605504;28;20053;-91
2022/08/29 01:00:36;;;;;;;115.65;12.70;;;;;;;14.05;100.00;98637.06;2606956;28;20052;-90
2022/08/29 01:01:52;;;;;;;85.20;13.27;;;;;;;14.02;100.00;98637.16;2606409;28;20051;-91
2022/08/29 01:03:08;;;;;;;79.82;12.82;;;;;;;13.94;100.00;98644.50;2606644;28;20049;-90
2022/08/29 01:04:23;;;;;;;162.35;16.85;;;;;;;14.04;100.00;98645.00;2606062;28;20569;-91
2022/08/29 01:05:41;;;;;;;179.75;15.32;;;;;;;14.00;100.00;98652.16;2607593;28;20048;-91
2022/08/29 01:06:57;;;;;;;168.85;14.90;;;;;;;13.80;100.00;98639.75;2605859;28;20045;-91
2022/08/29 01:08:13;;;;;;;167.50;14.93;;;;;;;13.80;100.00;98650.28;2607730;28;20392;-91
2022/08/29 01:09:29;;;;;;;89.43;14.25;;;;;;;13.78;100.00;98649.47;2606320;28;20045;-90
2022/08/29 01:12:22;;;;;;;197.57;17.15;;;;;;;13.82;100.00;98648.44;2606406;28;20128;-90
2022/08/29 01:13:40;;;;;;;164.52;16.35;;;;;;;13.76;100.00;98648.69;2607583;28;20072;-90
2022/08/29 01:15:04;;;;;;;194.00;16.45;;;;;;;13.67;100.00;98645.47;2605671;28;20069;-89
2022/08/29 01:16:20;;;;;;;162.02;16.45;;;;;;;13.77;100.00;98650.41;2606605;28;20119;-91
2022/08/29 01:17:43;;;;;;;135.23;15.00;;;;;;;13.79;100.00;98638.91;2605971;28;20515;-89
2022/08/29 01:19:04;;;;;;;201.68;15.93;;;;;;;13.77;100.00;98638.13;2606800;28;20075;-89
2022/08/29 01:20:41;;;;;;;182.75;16.48;;;;;;;13.74;100.00;98640.84;2606419;28;20049;-90
2022/08/29 01:22:09;;;;;;;132.80;15.85;;;;;;;13.76;100.00;98635.53;2607092;28;20076;-90
2022/08/29 01:23:27;;;;;;;194.70;16.98;;;;;;;13.82;100.00;98637.91;2606430;28;20056;-93
2022/08/29 01:24:52;;;;;;;201.43;19.80;;;;;;;13.77;100.00;98645.13;2607059;28;20227;-90
2022/08/29 01:26:10;;;;;;;182.48;15.40;;;;;;;13.86;100.00;98644.78;2605884;28;20053;-89
2022/08/29 01:27:28;;;;;;;155.32;16.70;;;;;;;13.87;100.00;98645.63;2607189;28;20049;-89
2022/08/29 01:28:48;;;;;;;139.00;14.57;;;;;;;13.80;100.00;98645.00;2605662;28;20514;-89
2022/08/29 01:30:05;;;;;;;216.05;19.17;;;;;;;13.66;100.00;98642.91;2606769;28;20044;-90
2022/08/29 01:31:24;;;;;;;177.15;18.08;;;;;;;13.58;100.00;98645.84;2605686;28;20071;-90
2022/08/29 01:32:40;;;;;;;101.72;13.98;;;;;;;13.71;100.00;98643.59;2607046;28;20478;-89
2022/08/29 01:33:58;;;;;;;151.65;15.70;;;;;;;13.70;100.00;98645.38;2606291;28;20094;-88
2022/08/29 01:35:13;;;;;;;266.08;19.58;;;;;;;13.60;100.00;98648.41;2607286;28;20053;-89
2022/08/29 01:36:38;;;;;;;177.00;17.63;;;;;;;13.66;100.00;98646.38;2605936;28;20624;-88
2022/08/29 01:37:53;;;;;;;140.43;13.88;;;;;;;13.63;100.00;98651.78;2601014;28;20053;-89
2022/08/29 01:39:09;;;;;;;101.85;16.88;;;;;;;13.71;100.00;98643.59;2601890;28;20045;-89
2022/08/29 01:40:28;;;;;;;209.60;18.02;;;;;;;13.76;100.00;98651.31;2606915;28;20049;-89
2022/08/29 01:41:44;;;;;;;243.32;18.83;;;;;;;13.79;100.00;98649.44;2605745;28;20107;-90
2022/08/29 01:43:00;;;;;;;210.75;18.15;;;;;;;13.78;100.00;98646.84;2606432;28;20057;-89
2022/08/29 01:44:19;;;;;;;271.92;23.38;;;;;;;13.84;100.00;98641.38;2606000;28;20053;-90
2022/08/29 01:45:34;;;;;;;131.93;15.50;;;;;;;13.78;100.00;98647.72;2607309;28;20056;-90
2022/08/29 01:46:54;;;;;;;179.73;16.02;;;;;;;13.74;100.00;98651.38;2605971;28;20075;-90
2022/08/29 01:48:10;;;;;;;186.48;17.95;;;;;;;13.83;100.00;98645.75;2606549;28;20045;-90
2022/08/29 01:49:26;;;;;;;261.38;19.02;;;;;;;13.88;100.00;98647.34;2605792;28;20052;-90
2022/08/29 01:50:43;;;;;;;222.00;18.00;;;;;;;13.90;100.00;98649.03;2606655;28;20045;-89
2022/08/29 01:51:59;;;;;;;294.13;21.63;;;;;;;13.84;100.00;98650.09;2605817;28;20128;-90
2022/08/29 01:53:15;;;;;;;140.48;15.40;;;;;;;13.92;100.00;98651.59;2607173;28;20060;-92
2022/08/29 01:54:31;;;;;;;140.73;15.43;;;;;;;13.93;100.00;98653.31;2605565;28;20659;-91
2022/08/29 01:55:47;;;;;;;152.00;14.15;;;;;;;13.83;100.00;98650.19;2606287;28;20053;-89
2022/08/29 01:57:02;;;;;;;135.07;14.77;;;;;;;13.70;100.00;98650.66;2606852;28;20126;-89
2022/08/29 01:58:18;;;;;;;155.13;14.52;;;;;;;13.72;100.00;98652.34;2606008;28;20124;-90
2022/08/29 01:59:34;;;;;;;152.77;15.80;;;;;;;13.61;100.00;98652.72;2605121;28;20060;-89
2022/08/29 02:00:50;;;;;;;82.63;13.30;;;;;;;13.67;100.00;98650.72;2605560;28;20115;-89
2022/08/29 02:02:16;;;;;;;200.85;17.90;;;;;;;13.67;100.00;98650.72;2606446;28;20056;-91
2022/08/29 02:03:32;;;;;;;147.68;17.00;;;;;;;13.70;100.00;98658.53;2606198;28;20134;-90
2022/08/29 02:04:48;;;;;;;109.65;15.70;;;;;;;13.78;100.00;98652.13;2607158;28;20053;-90
2022/08/29 02:06:03;;;;;;;97.25;14.50;;;;;;;13.83;100.00;98653.66;2606357;28;20057;-90
2022/08/29 02:07:23;;;;;;;151.52;16.17;;;;;;;13.80;100.00;98651.16;2606960;28;20080;-90
2022/08/29 02:08:41;;;;;;;118.82;13.85;;;;;;;13.80;100.00;98648.53;2605126;28;20049;-91
2022/08/29 02:09:56;;;;;;;90.47;14.32;;;;;;;13.94;100.00;98650.59;2606763;28;20471;-91
2022/08/29 02:11:14;;;;;;;118.63;14.80;;;;;;;13.84;100.00;98646.63;2605376;28;20362;-91
2022/08/29 02:12:30;;;;;;;149.38;14.30;;;;;;;13.75;100.00;98653.06;2606923;28;20045;-90
2022/08/29 02:13:54;;;;;;;123.82;15.15;;;;;;;13.71;100.00;98654.13;2606321;28;20084;-90
2022/08/29 02:15:10;;;;;;;125.65;14.18;;;;;;;13.72;100.00;98649.72;2606207;28;20049;-90
2022/08/29 02:16:27;;;;;;;115.50;14.68;;;;;;;13.66;100.00;98654.28;2605533;28;20045;-90
2022/08/29 02:17:42;;;;;;;116.15;15.27;;;;;;;13.64;100.00;98666.66;2606508;28;20053;-91
2022/08/29 02:18:58;;;;;;;55.30;14.82;;;;;;;13.60;100.00;98659.78;2605866;28;20048;-89
2022/08/29 02:20:14;;;;;;;116.35;15.15;;;;;;;13.60;100.00;98659.78;2606715;28;20511;-89
2022/08/29 02:21:30;;;;;;;65.38;14.10;;;;;;;13.62;100.00;98663.22;2607392;28;20499;-91
2022/08/29 02:22:46;;;;;;;110.15;16.83;;;;;;;13.61;100.00;98652.72;2608334;28;20466;-91
2022/08/29 02:24:04;;;;;;;116.47;15.10;;;;;;;13.72;100.00;98652.34;2607808;28;20412;-91
2022/08/29 02:25:41;;;;;;;104.05;14.68;;;;;;;13.70;100.00;98648.00;2608120;28;20087;-90
2022/08/29 02:26:56;;;;;;;57.40;13.02;;;;;;;13.78;100.00;98649.47;2606214;28;20045;-89
2022/08/29 02:28:17;;;;;;;95.40;13.30;;;;;;;13.75;100.00;98655.72;2608528;28;20055;-90
2022/08/29 02:29:33;;;;;;;126.82;14.82;;;;;;;13.79;100.00;98651.19;2607487;28;20049;-91
2022/08/29 02:30:54;;;;;;;108.38;14.60;;;;;;;13.81;100.00;98650.22;2608833;28;20099;-89
2022/08/29 02:32:13;;;;;;;104.90;13.07;;;;;;;13.78;100.00;98646.84;2607266;28;20048;-90
2022/08/29 02:33:28;;;;;;;71.97;13.63;;;;;;;13.79;100.00;98649.44;2608159;28;20063;-90
2022/08/29 02:34:44;;;;;;;70.88;13.30;;;;;;;13.78;100.00;98646.84;2607643;28;20408;-89
2022/08/29 02:35:59;;;;;;;133.95;15.63;;;;;;;13.79;100.00;98641.53;2608098;28;20032;-89
2022/08/29 02:37:16;;;;;;;103.93;14.07;;;;;;;13.73;100.00;98647.03;2607106;28;20495;-89
2022/08/29 02:38:33;;;;;;;148.20;16.42;;;;;;;13.76;100.00;98648.69;2607997;28;20045;-89
2022/08/29 02:39:48;;;;;;;160.80;17.08;;;;;;;13.74;100.00;98647.91;2607769;28;20061;-89
2022/08/29 02:41:05;;;;;;;137.65;16.63;;;;;;;13.72;100.00;98642.69;2608223;28;20048;-89
2022/08/29 02:42:21;;;;;;;159.40;16.30;;;;;;;13.80;100.00;98645.00;2606844;28;20045;-91
2022/08/29 02:43:36;;;;;;;50.72;14.30;;;;;;;13.76;100.00;98646.06;2606968;28;20048;-90
2022/08/29 02:44:52;;;;;;;62.00;13.63;;;;;;;13.79;100.00;98643.31;2607898;28;20057;-90
2022/08/29 02:46:12;;;;;;;80.45;16.95;;;;;;;13.73;100.00;98649.66;2607547;28;20060;-89
2022/08/29 02:47:28;;;;;;;69.30;14.25;;;;;;;13.81;100.00;98644.97;2608299;28;20083;-89
2022/08/29 02:48:44;;;;;;;174.60;18.00;;;;;;;13.88;100.00;98642.09;2607194;28;20087;-89
2022/08/29 02:50:06;;;;;;;189.85;19.40;;;;;;;13.83;100.00;98639.66;2608043;28;20056;-89
2022/08/29 02:51:27;;;;;;;89.95;15.13;;;;;;;13.72;100.00;98639.19;2606814;28;20053;-90
2022/08/29 02:52:43;;;;;;;83.05;15.68;;;;;;;13.77;100.00;98647.78;2607837;28;20079;-90
2022/08/29 02:54:00;;;;;;;70.40;14.98;;;;;;;13.82;100.00;98643.19;2607802;28;20061;-90
2022/08/29 02:55:18;;;;;;;156.43;17.88;;;;;;;13.89;100.00;98638.53;2607822;28;20488;-90
2022/08/29 02:56:33;;;;;;;82.07;15.18;;;;;;;13.88;100.00;98645.59;2607259;28;20136;-90
2022/08/29 02:57:50;;;;;;;125.72;15.18;;;;;;;13.95;100.00;98643.59;2608397;28;20045;-89
2022/08/29 02:59:07;;;;;;;165.25;17.45;;;;;;;14.05;100.00;98644.94;2607354;28;20094;-92
2022/08/29 03:00:24;;;;;;;190.25;17.45;;;;;;;14.01;100.00;98631.97;2607921;28;20053;-89
2022/08/29 03:01:40;;;;;;;148.40;16.17;;;;;;;14.05;100.00;98638.81;2607256;28;20350;-90
2022/08/29 03:02:56;;;;;;;45.05;12.85;;;;;;;13.96;100.00;98646.13;2607958;28;20055;-90
2022/08/29 03:04:11;;;;;;;52.88;12.85;;;;;;;14.04;100.00;98631.84;2607429;28;20049;-90
2022/08/29 03:05:33;;;;;;;152.45;15.70;;;;;;;14.11;100.00;98643.84;2608567;28;20132;-90
2022/08/29 03:06:49;;;;;;;95.47;14.75;;;;;;;14.13;100.00;98639.38;2606855;28;20407;-90
2022/08/29 03:08:09;;;;;;;92.85;14.07;;;;;;;14.16;100.00;98641.88;2608394;28;20049;-89
2022/08/29 03:09:24;;;;;;;186.57;17.08;;;;;;;14.13;100.00;98642.00;2606761;28;20057;-91
2022/08/29 03:10:42;;;;;;;95.97;14.10;;;;;;;14.10;100.00;98640.34;2608128;28;20057;-91
2022/08/29 03:11:57;;;;;;;220.00;18.17;;;;;;;14.15;100.00;98639.31;2606389;28;20761;-90
2022/08/29 03:13:13;;;;;;;20.13;12.20;;;;;;;14.15;100.00;98637.53;2608018;28;20059;-91
2022/08/29 03:14:29;;;;;;;65.20;14.40;;;;;;;14.15;100.00;98637.53;2607031;28;20388;-89
2022/08/29 03:15:46;;;;;;;44.45;12.63;;;;;;;14.12;100.00;98635.03;2608592;28;20124;-90
2022/08/29 03:17:02;;;;;;;20.20;12.52;;;;;;;14.12;100.00;98640.31;2607104;28;20888;-89
2022/08/29 03:18:18;;;;;;;41.75;12.75;;;;;;;14.03;100.00;98640.66;2607846;28;20488;-89
2022/08/29 03:19:33;;;;;;;40.47;11.82;;;;;;;14.12;100.00;98640.31;2606270;28;20322;-91
2022/08/29 03:20:49;;;;;;;51.92;12.63;;;;;;;14.16;100.00;98641.00;2608373;28;20053;-91
2022/08/29 03:22:05;;;;;;;26.75;12.00;;;;;;;14.20;100.00;98637.38;2607345;28;20059;-89
2022/08/29 03:23:20;;;;;;;17.85;12.02;;;;;;;14.24;100.00;98644.22;2607351;28;20044;-89
2022/08/29 03:24:36;;;;;;;15.82;11.10;;;;;;;14.28;100.00;98645.78;2607552;28;20083;-90
2022/08/29 03:25:54;;;;;;;16.13;10.45;;;;;;;14.28;100.00;98640.53;2604664;28;20048;-89
2022/08/29 03:27:09;;;;;;;15.60;10.38;;;;;;;14.19;100.00;98638.28;2607174;28;20584;-88
2022/08/29 03:28:25;;;;;;;17.02;10.63;;;;;;;13.98;100.00;98644.34;2606141;28;20107;-89
2022/08/29 03:29:40;;;;;;;28.25;11.27;;;;;;;13.89;100.00;98639.41;2608122;28;20041;-89
2022/08/29 03:30:56;;;;;;;25.95;10.82;;;;;;;13.77;100.00;98634.63;2606530;28;20053;-89
2022/08/29 03:32:12;;;;;;;17.40;10.98;;;;;;;13.91;100.00;98642.00;2607772;28;20056;-89
2022/08/29 03:33:27;;;;;;;83.63;13.40;;;;;;;13.96;100.00;98646.13;2606771;28;20049;-90
2022/08/29 03:34:43;;;;;;;80.53;15.43;;;;;;;14.04;100.00;98647.63;2608213;28;20609;-90
2022/08/29 03:35:59;;;;;;;130.15;14.23;;;;;;;14.06;100.00;98649.28;2606181;28;20562;-90
2022/08/29 03:37:14;;;;;;;102.80;13.80;;;;;;;13.98;100.00;98654.84;2608399;28;20507;-90
2022/08/29 03:38:30;;;;;;;72.07;12.43;;;;;;;14.04;100.00;98652.91;2606886;28;20411;-91
2022/08/29 03:39:45;;;;;;;170.07;16.25;;;;;;;13.85;100.00;98653.63;2608293;28;20049;-90
2022/08/29 03:41:01;;;;;;;194.77;17.65;;;;;;;13.82;100.00;98653.69;2606696;28;20102;-90
2022/08/29 03:42:17;;;;;;;123.90;15.48;;;;;;;13.98;100.00;98654.84;2607940;28;20048;-90
2022/08/29 03:43:32;;;;;;;155.75;14.07;;;;;;;13.94;100.00;98642.72;2606831;28;20048;-92
2022/08/29 03:44:48;;;;;;;241.00;17.35;;;;;;;13.90;100.00;98646.38;2608554;28;20049;-91
2022/08/29 03:46:04;;;;;;;135.40;14.05;;;;;;;13.82;100.00;98644.06;2606427;28;20060;-90
2022/08/29 03:47:19;;;;;;;149.70;15.07;;;;;;;13.88;100.00;98645.59;2607295;28;20094;-92
2022/08/29 03:48:35;;;;;;;41.33;12.45;;;;;;;13.93;100.00;98648.91;2606386;28;20060;-91
2022/08/29 03:49:50;;;;;;;222.32;20.85;;;;;;;13.96;100.00;98648.78;2606953;28;20407;-92
2022/08/29 03:51:06;;;;;;;97.82;14.18;;;;;;;13.91;100.00;98644.63;2607381;28;20057;-93
2022/08/29 03:52:22;;;;;;;126.90;14.18;;;;;;;13.95;100.00;98644.41;2606802;28;20678;-93
2022/08/29 03:53:37;;;;;;;105.72;14.73;;;;;;;13.90;100.00;98648.16;2607958;28;20049;-93
2022/08/29 03:54:53;;;;;;;104.07;13.38;;;;;;;13.87;100.00;98649.16;2607129;28;20259;-94
2022/08/29 03:56:08;;;;;;;90.43;14.20;;;;;;;13.84;100.00;98641.38;2608329;28;20049;-94
2022/08/29 03:57:24;;;;;;;99.25;14.60;;;;;;;13.82;100.00;98643.19;2606842;28;20113;-92
2022/08/29 03:58:40;;;;;;;116.45;13.50;;;;;;;13.81;100.00;98646.72;2608340;28;20897;-93
2022/08/29 03:59:56;;;;;;;153.90;17.00;;;;;;;13.81;100.00;98649.38;2606018;28;20366;-92
2022/08/29 04:01:12;;;;;;;118.35;13.18;;;;;;;13.70;100.00;98650.66;2607897;28;20049;-92
2022/08/29 04:02:28;;;;;;;127.45;16.10;;;;;;;13.73;100.00;98654.06;2605433;28;20689;-93
2022/08/29 04:03:44;;;;;;;87.50;12.38;;;;;;;13.77;100.00;98645.13;2608374;28;20063;-93
2022/08/29 04:05:08;;;;;;;105.70;13.07;;;;;;;13.82;100.00;98651.06;2606652;28;20048;-93
2022/08/29 04:06:28;;;;;;;104.18;12.77;;;;;;;13.79;100.00;98651.19;2608031;28;20048;-93
2022/08/29 04:07:48;;;;;;;139.15;15.68;;;;;;;13.77;100.00;98651.28;2606726;28;20053;-94
2022/08/29 04:09:03;;;;;;;101.10;14.90;;;;;;;13.79;100.00;98659.09;2608102;28;20095;-92
2022/08/29 04:10:29;;;;;;;75.40;13.77;;;;;;;13.81;100.00;98655.50;2606547;28;20057;-91
2022/08/29 04:11:44;;;;;;;177.82;17.50;;;;;;;13.73;100.00;98654.06;2607567;28;20068;-92
2022/08/29 04:13:00;;;;;;;123.85;13.40;;;;;;;13.73;100.00;98654.06;2606952;28;20483;-92
2022/08/29 04:14:15;;;;;;;56.33;11.95;;;;;;;13.75;100.00;98658.34;2608193;28;20049;-91
2022/08/29 04:15:32;;;;;;;110.50;13.63;;;;;;;13.84;100.00;98658.00;2606152;28;20107;-91
2022/08/29 04:16:51;;;;;;;40.35;12.85;;;;;;;13.79;100.00;98662.59;2608060;28;20088;-91
2022/08/29 04:18:09;;;;;;;163.32;15.20;;;;;;;13.84;100.00;98665.91;2605879;28;20049;-91
2022/08/29 04:19:25;;;;;;;57.88;12.88;;;;;;;13.77;100.00;98667.06;2607490;28;20128;-91
2022/08/29 04:20:43;;;;;;;120.78;13.52;;;;;;;13.89;100.00;98665.72;2606367;28;20494;-91
2022/08/29 04:21:59;;;;;;;137.52;14.43;;;;;;;13.87;100.00;98669.31;2607838;28;20053;-91
2022/08/29 04:23:15;;;;;;;125.13;13.20;;;;;;;13.83;100.00;98666.81;2605912;28;20051;-92
2022/08/29 04:24:31;;;;;;;47.00;12.38;;;;;;;13.85;100.00;98674.66;2605897;28;20060;-93
2022/08/29 04:25:47;;;;;;;126.93;14.70;;;;;;;13.84;100.00;98683.47;2606760;28;20041;-91
2022/08/29 04:27:03;;;;;;;146.15;14.27;;;;;;;13.85;100.00;98677.31;2606321;28;20080;-91
2022/08/29 04:28:27;;;;;;;39.80;10.95;;;;;;;13.90;100.00;98685.00;2605851;28;20458;-93
2022/08/29 04:29:47;;;;;;;102.93;12.35;;;;;;;13.88;100.00;98681.56;2606541;28;20514;-91
2022/08/29 04:31:02;;;;;;;73.25;13.55;;;;;;;13.92;100.00;98684.03;2607532;28;20380;-92
2022/08/29 04:32:19;;;;;;;143.30;13.63;;;;;;;13.84;100.00;98678.22;2605720;28;20045;-92
2022/08/29 04:33:34;;;;;;;121.38;13.68;;;;;;;13.83;100.00;98677.34;2607839;28;20694;-92
2022/08/29 04:34:54;;;;;;;136.90;13.30;;;;;;;13.81;100.00;98684.44;2606079;28;20376;-91
2022/08/29 04:36:10;;;;;;;189.43;16.80;;;;;;;13.76;100.00;98686.41;2607306;28;20037;-92
2022/08/29 04:37:26;;;;;;;120.15;12.93;;;;;;;13.75;100.00;98678.56;2606519;28;20051;-91
2022/08/29 04:38:41;;;;;;;167.10;17.75;;;;;;;13.70;100.00;98692.75;2607163;28;20475;-93
2022/08/29 04:39:57;;;;;;;112.55;12.73;;;;;;;13.73;100.00;98693.53;2605904;28;20055;-91
2022/08/29 04:41:13;;;;;;;114.85;13.43;;;;;;;13.79;100.00;98690.66;2606885;28;20045;-90
2022/08/29 04:42:30;;;;;;;173.32;17.80;;;;;;;13.67;100.00;98697.25;2606091;28;20498;-90
2022/08/29 04:43:45;;;;;;;184.55;16.15;;;;;;;13.65;100.00;98693.81;2606784;28;20491;-92
2022/08/29 04:45:02;;;;;;;89.28;11.65;;;;;;;13.52;100.00;98699.53;2606254;28;20051;-91
2022/08/29 04:46:17;;;;;;;187.38;15.55;;;;;;;13.72;100.00;98707.63;2607096;28;20554;-92
2022/08/29 04:47:34;;;;;;;93.65;11.55;;;;;;;13.58;100.00;98702.84;2605777;28;20049;-93
2022/08/29 04:48:50;;;;;;;213.48;16.98;;;;;;;13.63;100.00;98707.03;2607621;28;20056;-91
2022/08/29 04:50:08;;;;;;;97.95;13.95;;;;;;;13.70;100.00;98708.53;2605837;28;20049;-92
2022/08/29 04:51:23;;;;;;;107.70;12.88;;;;;;;13.72;100.00;98707.63;2607414;28;20041;-92
2022/08/29 04:52:41;;;;;;;116.25;12.80;;;;;;;13.70;100.00;98713.78;2605772;28;20726;-92
2022/08/29 04:53:56;;;;;;;119.00;12.88;;;;;;;13.72;100.00;98712.88;2606024;28;20048;-91
2022/08/29 04:55:14;;;;;;;149.55;15.27;;;;;;;13.65;100.00;98710.44;2605834;28;20491;-91
2022/08/29 04:56:29;;;;;;;77.45;11.45;;;;;;;13.60;100.00;98711.53;2606751;28;20435;-93
2022/08/29 04:57:45;;;;;;;101.93;12.98;;;;;;;13.48;100.00;98715.47;2606164;28;20139;-92
2022/08/29 04:59:01;;;;;;;124.22;13.52;;;;;;;13.54;100.00;98716.09;2605697;28;20041;-91
2022/08/29 05:00:20;;;;;;;43.58;10.68;;;;;;;13.62;100.00;98722.84;2606552;28;20040;-91
2022/08/29 05:01:35;;;;;;;88.35;12.77;;;;;;;13.51;100.00;98718.84;2605837;28;20045;-91
2022/08/29 05:02:51;;;;;;;94.88;12.00;;;;;;;13.56;100.00;98716.06;2606978;28;20835;-92
2022/08/29 05:04:07;;;;;;;57.55;11.07;;;;;;;13.59;100.00;98717.72;2606277;28;20656;-92
2022/08/29 05:05:25;;;;;;;143.68;14.63;;;;;;;13.59;100.00;98720.34;2606747;28;20045;-92
2022/08/29 05:06:40;;;;;;;161.95;15.48;;;;;;;13.60;100.00;98720.28;2604895;28;20380;-92
2022/08/29 05:07:56;;;;;;;43.25;11.63;;;;;;;13.56;100.00;98718.69;2606600;28;20049;-95
2022/08/29 05:09:11;;;;;;;78.57;12.57;;;;;;;13.63;100.00;98727.22;2605248;28;20044;-92
2022/08/29 05:10:27;;;;;;;87.47;12.10;;;;;;;13.74;100.00;98719.78;2605916;28;20052;-93
2022/08/29 05:11:43;;;;;;;85.20;13.10;;;;;;;13.80;100.00;98727.47;2605038;28;20044;-93
2022/08/29 05:12:59;;;;;;;48.40;11.52;;;;;;;13.63;100.00;98727.22;2607261;28;20057;-92
2022/08/29 05:14:14;;;;;;;163.20;14.95;;;;;;;13.54;100.00;98728.38;2605527;28;20049;-93
2022/08/29 05:15:30;;;;;;;42.63;9.38;;;;;;;13.72;100.00;98726.03;2605112;28;20075;-94
2022/08/29 05:16:47;;;;;;;135.02;16.83;;;;;;;13.79;100.00;98732.78;2606209;28;20441;-92
2022/08/29 05:18:02;;;;;;;49.17;10.45;;;;;;;13.75;100.00;98736.44;2606490;28;20056;-91
2022/08/29 05:19:18;;;;;;;116.10;12.77;;;;;;;13.80;100.00;98735.38;2605771;28;20048;-92
2022/08/29 05:20:34;;;;;;;32.08;10.13;;;;;;;13.82;100.00;98740.56;2607314;28;20051;-92
2022/08/29 05:21:55;;;;;;;54.33;10.73;;;;;;;13.79;100.00;98741.53;2606021;28;20560;-92
2022/08/29 05:23:12;;;;;;;63.63;11.30;;;;;;;13.80;100.00;98739.75;2607313;28;20059;-91
2022/08/29 05:24:30;;;;;;;48.50;10.77;;;;;;;13.85;100.00;98745.72;2605887;28;20044;-92
2022/08/29 05:25:55;;;;;;;145.38;15.52;;;;;;;13.83;100.00;98748.41;2607149;28;20417;-91
2022/08/29 05:27:16;;;;;;;130.43;14.13;;;;;;;13.77;100.00;98747.75;2605732;28;20045;-92
2022/08/29 05:28:33;;;;;;;126.68;12.35;;;;;;;13.80;100.00;98745.00;2607359;28;20049;-93
2022/08/29 05:29:50;;;;;;;77.00;10.95;;;;;;;13.71;100.00;98748.84;2603356;28;20388;-92
2022/08/29 05:31:06;;;;;;;81.88;11.25;;;;;;;13.53;100.00;98751.22;2605798;28;20503;-92
2022/08/29 05:32:22;;;;;;;49.42;9.90;;;;;;;13.61;100.00;98748.31;2604557;28;20388;-92
2022/08/29 05:33:37;;;;;;;43.83;11.07;;;;;;;13.80;100.00;98751.16;2606531;28;20048;-93
2022/08/29 05:34:54;;;;;;;47.50;11.88;;;;;;;13.78;100.00;98749.47;2605851;28;20045;-93
2022/08/29 05:36:10;;;;;;;99.32;12.75;;;;;;;13.85;100.00;98743.09;2606934;28;20137;-93
2022/08/29 05:37:25;;;;;;;125.75;14.02;;;;;;;13.93;100.00;98751.56;2607172;28;20065;-92
2022/08/29 05:38:41;;;;;;;110.63;12.85;;;;;;;13.85;100.00;98745.72;2604579;28;20084;-92
2022/08/29 05:39:57;;;;;;;126.18;12.27;;;;;;;13.66;100.00;98751.63;2604793;28;20041;-92
2022/08/29 05:41:13;;;;;;;121.35;12.63;;;;;;;13.82;100.00;98746.69;2604193;28;20102;-94
2022/08/29 05:42:28;;;;;;;81.72;12.20;;;;;;;13.80;100.00;98756.41;2605941;28;20119;-93
2022/08/29 05:43:50;;;;;;;90.90;11.73;;;;;;;13.83;100.00;98750.19;2604485;28;20045;-91
2022/08/29 05:45:06;;;;;;;121.45;16.58;;;;;;;13.90;100.00;98762.19;2605327;28;20060;-93
2022/08/29 05:46:21;;;;;;;59.22;11.80;;;;;;;13.91;100.00;98758.66;2603962;28;20045;-92
2022/08/29 05:47:37;;;;;;;71.15;11.45;;;;;;;13.81;100.00;98762.53;2605535;28;20492;-93
2022/08/29 05:48:53;;;;;;;96.93;14.30;;;;;;;13.93;100.00;98766.50;2603848;28;20060;-92
2022/08/29 05:50:10;;;;;;;44.13;11.07;;;;;;;13.94;100.00;98757.69;2605165;28;20054;-93